Weather reports worldwide

Advertisment
Stansted, United Kingdom (3683): temperature & dewpoint: 09.08.2020 09:00:00 - 15.08.2020 09:00:00 (BST)Stansted, United Kingdom (3683): wind speed: 09.08.2020 09:00:00 - 15.08.2020 09:00:00 (BST)Stansted, United Kingdom (3683): wind direction: 09.08.2020 09:00:00 - 15.08.2020 09:00:00 (BST)Stansted, United Kingdom (3683): visibility: 09.08.2020 09:00:00 - 15.08.2020 09:00:00 (BST)
Date & Time tt [°C] td [°C] ff [km/h] ff [kn] dd vv [km]
15.08.2020 09:00:00 16,0 16,0 11 6 N 2,6
15.08.2020 08:00:00 16,0 16,0 11 6 N 1,7
15.08.2020 07:00:00 16,0 16,0 11 6 N 1,0
15.08.2020 06:00:00 16,0 16,0 9 5 N 1,2
15.08.2020 05:00:00 16,0 16,0 13 7 N 1,4
15.08.2020 04:00:00 17,0 17,0 13 7 N 1,3
15.08.2020 03:00:00 17,0 17,0 11 6 N 1,2
15.08.2020 02:00:00 17,0 17,0 11 6 N 1,2
15.08.2020 01:00:00 17,0 17,0 9 5 N 1,3
15.08.2020 00:00:00 17,0 17,0 13 7 N 0,5
14.08.2020 23:00:00 17,0 17,0 13 7 N 0,6
14.08.2020 22:00:00 17,0 17,0 13 7 N 0,4
14.08.2020 21:00:00 17,0 17,0 11 6 N 0,5
14.08.2020 20:00:00 17,0 17,0 11 6 NNW 0,8
14.08.2020 19:00:00 18,0 17,0 11 6 N 4,4
14.08.2020 18:00:00 18,0 17,0 13 7 NNW 10
14.08.2020 17:00:00 19,0 18,0 13 7 NNW 10
14.08.2020 16:00:00 19,0 18,0 13 7 NNW 8
14.08.2020 15:00:00 18,0 18,0 13 7 NNW 4,3
14.08.2020 14:00:00 18,0 17,0 16 9 N 4,4
14.08.2020 13:00:00 17,0 17,0 15 8 NNW 2,6
14.08.2020 12:00:00 17,0 17,0 13 7 NNW 3,6
14.08.2020 11:00:00 17,0 16,0 11 6 NNW 7
14.08.2020 10:00:00 16,0 16,0 13 7 NNW 0,6
14.08.2020 09:00:00 16,0 16,0 16 9 N 1,4
14.08.2020 08:00:00 16,0 16,0 13 7 NNW 0,7
14.08.2020 07:00:00 16,0 16,0 13 7 NNW 4,3
14.08.2020 06:00:00 16,0 16,0 15 8 N 6
14.08.2020 05:00:00 16,0 16,0 15 8 N 1,6
14.08.2020 04:00:00 17,0 16,0 15 8 N 3,2
14.08.2020 03:00:00 17,0 17,0 11 6 N 0,4
14.08.2020 02:00:00 17,0 17,0 16 9 N 1,3
14.08.2020 01:00:00 17,0 17,0 18 10 N 0,4
14.08.2020 00:00:00 17,0 17,0 15 8 N 0,5
13.08.2020 23:00:00 17,0 17,0 11 6 N 0,6
13.08.2020 22:00:00 17,0 17,0 21 11 N 3,6
13.08.2020 21:00:00 18,0 17,0 13 7 N 5
13.08.2020 20:00:00 19,0 17,0 15 8 N 10
13.08.2020 19:00:00 19,0 17,0 13 7 NNW 10
13.08.2020 18:00:00 21,0 18,0 18 10 N 10
13.08.2020 17:00:00 21,0 18,0 13 7 N 10
13.08.2020 16:00:00 21,0 18,0 16 9 N 10
13.08.2020 15:00:00 21,0 18,0 15 8 N 10
13.08.2020 14:00:00 20,0 18,0 15 8 N 9
13.08.2020 13:00:00 20,0 18,0 21 11 N 10
13.08.2020 12:00:00 21,0 19,0 22 12 N 9
13.08.2020 11:00:00 20,0 19,0 18 10 N 3,3
13.08.2020 10:00:00 - - - - - -
13.08.2020 09:00:00 18,0 17,0 18 10 NNW 1,4
13.08.2020 08:00:00 18,0 17,0 13 7 N 4,2
13.08.2020 07:00:00 18,0 17,0 15 8 N 2,0
13.08.2020 06:00:00 18,0 17,0 8 4 N 2,4
13.08.2020 05:00:00 18,0 17,0 11 6 N 3,8
13.08.2020 04:00:00 19,0 17,0 8 4 N 6
13.08.2020 03:00:00 20,0 17,0 5 3 N 8
13.08.2020 02:00:00 20,0 17,0 5 3 - 8
13.08.2020 01:00:00 20,0 17,0 8 4 NNE 8
13.08.2020 00:00:00 21,0 17,0 2 1 NNE 8
12.08.2020 23:00:00 22,0 17,0 13 7 SSW 10
12.08.2020 22:00:00 23,0 18,0 11 6 E 10
12.08.2020 21:00:00 25,0 18,0 13 7 SE 10
12.08.2020 20:00:00 27,0 17,0 15 8 ESE 10
12.08.2020 19:00:00 28,0 17,0 16 9 ESE 10
12.08.2020 18:00:00 29,0 18,0 18 10 ESE 10
12.08.2020 17:00:00 30,0 17,0 21 11 SE 10
12.08.2020 16:00:00 32,0 17,0 18 10 ESE 10
12.08.2020 15:00:00 33,0 17,0 13 7 E 10
12.08.2020 14:00:00 33,0 17,0 9 5 E 10
12.08.2020 13:00:00 32,0 18,0 9 5 SE 10
12.08.2020 12:00:00 31,0 18,0 9 5 SE 10
12.08.2020 11:00:00 30,0 18,0 11 6 ESE 10
12.08.2020 10:00:00 27,0 19,0 5 3 - 10
12.08.2020 09:00:00 24,0 18,0 9 5 SE 7
12.08.2020 08:00:00 23,0 17,0 5 3 - 9
12.08.2020 07:00:00 22,0 17,0 5 3 - 10
12.08.2020 06:00:00 19,0 16,0 9 5 ENE 7
12.08.2020 05:00:00 21,0 17,0 8 4 ENE 5
12.08.2020 04:00:00 20,0 18,0 11 6 ENE 4,4
12.08.2020 03:00:00 20,0 17,0 4 2 - 4,3
12.08.2020 02:00:00 20,0 17,0 9 5 NE 4,6
12.08.2020 01:00:00 21,0 18,0 8 4 ESE 7
12.08.2020 00:00:00 22,0 17,0 18 10 SE 9
11.08.2020 23:00:00 23,0 17,0 16 9 SE 10
11.08.2020 22:00:00 25,0 16,0 15 8 SE 10
11.08.2020 21:00:00 27,0 16,0 9 5 SE 10
11.08.2020 20:00:00 29,0 17,0 15 8 - 10
11.08.2020 19:00:00 31,0 17,0 11 6 ESE 10
11.08.2020 18:00:00 31,0 17,0 9 5 ENE 10
11.08.2020 17:00:00 32,0 17,0 11 6 ESE 10
11.08.2020 16:00:00 32,0 17,0 13 7 ESE 10
11.08.2020 15:00:00 32,0 19,0 11 6 SSE 10
11.08.2020 14:00:00 31,0 19,0 11 6 E 10
11.08.2020 13:00:00 29,0 18,0 13 7 ENE 10
11.08.2020 12:00:00 26,0 19,0 5 3 - 10
11.08.2020 11:00:00 24,0 19,0 8 4 N 10
11.08.2020 10:00:00 23,0 19,0 5 3 - 10
11.08.2020 09:00:00 23,0 19,0 4 2 - 9
11.08.2020 08:00:00 21,0 18,0 5 3 - 10
11.08.2020 07:00:00 20,0 18,0 5 3 NNW 9
11.08.2020 06:00:00 20,0 18,0 5 3 - 7
11.08.2020 05:00:00 19,0 17,0 5 3 - 10
11.08.2020 04:00:00 20,0 17,0 4 2 - 10
11.08.2020 03:00:00 20,0 17,0 4 2 - 10
11.08.2020 02:00:00 21,0 17,0 4 2 - 10
11.08.2020 01:00:00 22,0 17,0 8 4 ESE 10
11.08.2020 00:00:00 22,0 17,0 11 6 E 10
10.08.2020 23:00:00 23,0 17,0 8 4 E 10
10.08.2020 22:00:00 23,0 17,0 13 7 E 10
10.08.2020 21:00:00 25,0 16,0 13 7 - 10
10.08.2020 20:00:00 27,0 16,0 16 9 ESE 10
10.08.2020 19:00:00 30,0 18,0 18 10 E 10
10.08.2020 18:00:00 31,0 18,0 16 9 ESE 10
10.08.2020 17:00:00 32,0 18,0 15 8 ESE 10
10.08.2020 16:00:00 33,0 18,0 16 9 E 10
10.08.2020 15:00:00 33,0 17,0 13 7 ESE 10
10.08.2020 14:00:00 33,0 17,0 16 9 SE 10
10.08.2020 13:00:00 31,0 18,0 13 7 ESE 10
10.08.2020 12:00:00 30,0 18,0 22 12 E 10
10.08.2020 11:00:00 27,0 18,0 15 8 NNE 10
10.08.2020 10:00:00 24,0 18,0 9 5 NNE 10
10.08.2020 09:00:00 22,0 17,0 8 4 NE 10
10.08.2020 08:00:00 19,0 16,0 9 5 N 10
10.08.2020 07:00:00 17,0 16,0 9 5 N 7
10.08.2020 06:00:00 17,0 16,0 11 6 N 10
10.08.2020 05:00:00 18,0 16,0 13 7 N 10
10.08.2020 04:00:00 18,0 16,0 11 6 N 10
10.08.2020 03:00:00 19,0 17,0 11 6 N 10
10.08.2020 02:00:00 19,0 17,0 11 6 NNE 10
10.08.2020 01:00:00 20,0 17,0 11 6 NE 10
10.08.2020 00:00:00 21,0 17,0 15 8 NE 10
09.08.2020 23:00:00 22,0 17,0 15 8 NE 10
09.08.2020 22:00:00 24,0 17,0 11 6 NE 10
09.08.2020 21:00:00 26,0 16,0 13 7 ENE 10
09.08.2020 20:00:00 28,0 16,0 15 8 E 10
09.08.2020 19:00:00 30,0 14,0 15 8 E 10
09.08.2020 18:00:00 31,0 15,0 16 9 ESE 10
09.08.2020 17:00:00 32,0 15,0 18 10 E 10
09.08.2020 16:00:00 31,0 16,0 21 11 ESE 10
09.08.2020 15:00:00 32,0 17,0 24 13 E 10
09.08.2020 14:00:00 31,0 18,0 16 9 E 10
09.08.2020 13:00:00 28,0 18,0 15 8 E 10
09.08.2020 12:00:00 27,0 17,0 13 7 ENE 10
09.08.2020 11:00:00 24,0 17,0 15 8 NE 10
09.08.2020 10:00:00 21,0 16,0 15 8 NNE 10
09.08.2020 09:00:00 19,0 16,0 15 8 N 9

tt = temperature
td = dewpoint
ff = wind speed
dd = wind direction
vv = visibility

Next stations